Upper Matecumbe Key, Florida
Current Conditions -  °F | °C
As of 4:53 AM on Friday 31 Oct 2014 (Local Time) from KMTH Reporting Station
Clear Clear  
Wind Chill: 71°   Ceiling: Unl
Heat Index: 71°   Visibility: 10mi
Dew Point: 68°   Wind: 0mph
Humidity: 90%   Direction: NA
Pressure: 29.85"   Gusts: NA
Location:  24.8649°N, 80.7192°W
Report Text: KMTH 310853Z AUTO 00000KT 10SM CLR 22/20 A2985 RMK AO2 SLP106 T02170200 56013
Loading
Personal Weather Stations






























Interactive Weather Map
Tropical Storm Tracking
New forecast layout! Learn more

10-Day Weather Forecast

Advertisements
Track Severe Weather on mobile